createdAt,value
2023-04-26T00:00:09.247Z,100216.66
2023-04-26T00:02:37.637Z,100209.50
2023-04-26T00:05:05.851Z,100214.22
2023-04-26T00:07:33.965Z,100212.78
2023-04-26T00:10:01.371Z,100211.09
2023-04-26T00:12:30.159Z,100213.56
2023-04-26T00:14:57.529Z,100220.09
2023-04-26T00:17:25.131Z,100213.56
2023-04-26T00:19:52.506Z,100222.41
2023-04-26T00:22:20.160Z,100211.88
2023-04-26T00:24:47.687Z,100226.31
2023-04-26T00:27:15.102Z,100226.25
2023-04-26T00:29:43.843Z,100228.50
2023-04-26T00:32:11.295Z,100230.47
2023-04-26T00:34:39.393Z,100228.75
2023-04-26T00:37:07.111Z,100229.59
2023-04-26T00:39:35.037Z,100222.47
2023-04-26T00:42:02.666Z,100228.22
2023-04-26T00:44:30.111Z,100224.59
2023-04-26T00:46:58.993Z,100242.56
2023-04-26T00:49:26.989Z,100224.44
2023-04-26T00:51:54.963Z,100230.31
2023-04-26T00:54:23.189Z,100242.75
2023-04-26T00:56:52.003Z,100241.25
2023-04-26T00:59:21.015Z,100235.25
2023-04-26T01:01:49.180Z,100241.06
2023-04-26T01:04:19.244Z,100251.25
2023-04-26T01:06:47.177Z,100243.78
2023-04-26T01:09:15.695Z,100255.94
2023-04-26T01:11:45.148Z,100243.06
2023-04-26T01:14:12.585Z,100247.53
2023-04-26T01:16:40.877Z,100254.09
2023-04-26T01:19:10.808Z,100256.22
2023-04-26T01:21:40.199Z,100254.50
2023-04-26T01:24:11.053Z,100249.13
2023-04-26T01:26:44.007Z,100260.75
2023-04-26T01:29:15.723Z,100252.56
2023-04-26T01:31:43.260Z,100260.06
2023-04-26T01:34:11.127Z,100262.31
2023-04-26T01:36:38.815Z,100266.72
2023-04-26T01:39:06.439Z,100262.75
2023-04-26T01:41:35.129Z,100265.09
2023-04-26T01:44:02.732Z,100265.81
2023-04-26T01:46:30.192Z,100260.16
2023-04-26T01:48:58.087Z,100271.13
2023-04-26T01:51:25.990Z,100270.31
2023-04-26T01:53:53.738Z,100262.34
2023-04-26T01:56:24.629Z,100275.94
2023-04-26T01:58:55.473Z,100269.59
2023-04-26T02:01:22.994Z,100269.16
2023-04-26T02:03:50.513Z,100272.38
2023-04-26T02:06:17.935Z,100273.41
2023-04-26T02:08:46.295Z,100272.97
2023-04-26T02:11:13.768Z,100271.66
2023-04-26T02:13:41.364Z,100277.09
2023-04-26T02:16:10.176Z,100278.81
2023-04-26T02:18:37.624Z,100275.41
2023-04-26T02:21:08.642Z,100284.25
2023-04-26T02:23:36.028Z,100275.25
2023-04-26T02:26:04.422Z,100277.31
2023-04-26T02:28:32.161Z,100273.09
2023-04-26T02:30:59.718Z,100278.72
2023-04-26T02:33:28.449Z,100276.06
2023-04-26T02:35:55.909Z,100274.53
2023-04-26T02:38:23.298Z,100269.59
2023-04-26T02:40:53.535Z,100271.44
2023-04-26T02:43:20.913Z,100269.47
2023-04-26T02:45:48.285Z,100271.44
2023-04-26T02:48:15.783Z,100275.25
2023-04-26T02:50:44.495Z,100271.25
2023-04-26T02:53:12.542Z,100276.25
2023-04-26T02:55:40.478Z,100275.13
2023-04-26T02:58:07.873Z,100277.19
2023-04-26T03:00:35.428Z,100275.56
2023-04-26T03:03:03.095Z,100275.84
2023-04-26T03:05:30.605Z,100274.53
2023-04-26T03:07:59.299Z,100275.97
2023-04-26T03:10:26.668Z,100281.38
2023-04-26T03:12:54.077Z,100282.09
2023-04-26T03:15:21.536Z,100284.97
2023-04-26T03:17:48.947Z,100287.94
2023-04-26T03:20:16.404Z,100281.16
2023-04-26T03:22:43.920Z,100281.00
2023-04-26T03:25:13.131Z,100281.09
2023-04-26T03:27:40.541Z,100290.88
2023-04-26T03:30:09.289Z,100292.25
2023-04-26T03:32:36.832Z,100290.69
2023-04-26T03:35:04.548Z,100292.94
2023-04-26T03:37:31.964Z,100283.81
2023-04-26T03:39:59.401Z,100291.41
2023-04-26T03:42:28.094Z,100302.19
2023-04-26T03:44:55.550Z,100294.59
2023-04-26T03:47:22.997Z,100289.47
2023-04-26T03:49:50.612Z,100298.91
2023-04-26T03:52:18.055Z,100305.53
2023-04-26T03:54:45.432Z,100310.38
2023-04-26T03:57:13.022Z,100307.25
2023-04-26T03:59:41.884Z,100312.16
2023-04-26T04:02:09.307Z,100318.56
2023-04-26T04:04:37.375Z,100316.91
2023-04-26T04:07:04.930Z,100311.91
2023-04-26T04:09:32.303Z,100312.25
2023-04-26T04:11:59.712Z,100318.84
2023-04-26T04:14:27.142Z,100323.47
2023-04-26T04:16:55.852Z,100312.50
2023-04-26T04:19:23.201Z,100328.03
2023-04-26T04:21:50.563Z,100315.78
2023-04-26T04:24:17.956Z,100318.41
2023-04-26T04:26:46.875Z,100336.81
2023-04-26T04:29:14.256Z,100325.47
2023-04-26T04:31:42.536Z,100333.63
2023-04-26T04:34:11.247Z,100332.28
2023-04-26T04:36:40.610Z,100335.69
2023-04-26T04:39:13.459Z,100338.84
2023-04-26T04:41:47.517Z,100339.72
2023-04-26T04:44:16.535Z,100329.72
2023-04-26T04:46:44.041Z,100339.59
2023-04-26T04:49:13.270Z,100340.81
2023-04-26T04:51:40.754Z,100337.94
2023-04-26T04:54:12.632Z,100342.81
2023-04-26T04:56:40.547Z,100346.06
2023-04-26T04:59:08.483Z,100342.47
2023-04-26T05:01:36.993Z,100341.38
2023-04-26T05:04:04.601Z,100346.59
2023-04-26T05:06:33.482Z,100354.06
2023-04-26T05:09:01.379Z,100355.78
2023-04-26T05:11:28.900Z,100348.25
2023-04-26T05:13:56.656Z,100355.09
2023-04-26T05:16:24.339Z,100360.75
2023-04-26T05:18:51.847Z,100364.09
2023-04-26T05:21:21.508Z,100366.47
2023-04-26T05:23:50.625Z,100364.19
2023-04-26T05:26:18.319Z,100371.31
2023-04-26T05:28:45.806Z,100361.44
2023-04-26T05:31:13.338Z,100368.16
2023-04-26T05:33:41.153Z,100364.97
2023-04-26T05:36:09.376Z,100372.66
2023-04-26T05:38:37.962Z,100367.44
2023-04-26T05:41:06.811Z,100375.13
2023-04-26T05:43:39.002Z,100373.03
2023-04-26T05:46:06.674Z,100387.28
2023-04-26T05:48:34.108Z,100382.00
2023-04-26T05:51:01.584Z,100378.41
2023-04-26T05:53:28.964Z,100387.06
2023-04-26T05:55:56.570Z,100377.53
2023-04-26T05:58:25.260Z,100377.00
2023-04-26T06:00:52.958Z,100380.47
2023-04-26T06:03:20.520Z,100384.09
2023-04-26T06:05:48.108Z,100393.28
2023-04-26T06:08:15.569Z,100388.53
2023-04-26T06:10:43.006Z,100401.00
2023-04-26T06:13:10.386Z,100390.16
2023-04-26T06:15:39.074Z,100393.09
2023-04-26T06:18:06.806Z,100390.94
2023-04-26T06:20:34.264Z,100397.63
2023-04-26T06:23:01.629Z,100389.75
2023-04-26T06:25:29.099Z,100394.59
2023-04-26T06:27:56.526Z,100396.75
2023-04-26T06:30:23.949Z,100386.94
2023-04-26T06:32:52.713Z,100392.44
2023-04-26T06:35:20.115Z,100395.84
2023-04-26T06:37:47.583Z,100396.03
2023-04-26T06:40:15.931Z,100398.91
2023-04-26T06:42:43.446Z,100396.03
2023-04-26T06:45:12.415Z,100401.28
2023-04-26T06:47:39.834Z,100398.50
2023-04-26T06:50:10.472Z,100404.88
2023-04-26T06:52:37.954Z,100395.81
2023-04-26T06:55:06.046Z,100395.84
2023-04-26T06:57:33.437Z,100409.06
2023-04-26T07:00:00.824Z,100405.06
2023-04-26T07:02:28.371Z,100404.69
2023-04-26T07:04:56.271Z,100411.50
2023-04-26T07:07:25.137Z,100401.25
2023-04-26T07:09:53.858Z,100407.13
2023-04-26T07:12:21.412Z,100410.31
2023-04-26T07:14:48.768Z,100408.06
2023-04-26T07:17:16.645Z,100409.72
2023-04-26T07:19:44.035Z,100412.22
2023-04-26T07:22:12.049Z,100416.88
2023-04-26T07:24:40.756Z,100407.13
2023-04-26T07:27:08.204Z,100405.19
2023-04-26T07:29:35.681Z,100411.69
2023-04-26T07:32:03.898Z,100403.34
2023-04-26T07:34:31.495Z,100410.25
2023-04-26T07:36:59.043Z,100415.41
2023-04-26T07:39:26.726Z,100414.31
2023-04-26T07:41:56.072Z,100413.53
2023-04-26T07:44:23.510Z,100409.34
2023-04-26T07:46:51.010Z,100406.75
2023-04-26T07:49:18.388Z,100418.97
2023-04-26T07:51:45.953Z,100422.34
2023-04-26T07:54:13.462Z,100401.47
2023-04-26T07:56:41.006Z,100411.16
2023-04-26T07:59:10.107Z,100404.19
2023-04-26T08:01:38.087Z,100396.63
2023-04-26T08:04:06.726Z,100419.13
2023-04-26T08:06:34.315Z,100413.19
2023-04-26T08:09:02.236Z,100410.31
2023-04-26T08:11:29.704Z,100405.81
2023-04-26T08:13:59.674Z,100413.69
2023-04-26T08:16:28.693Z,100412.69
2023-04-26T08:19:02.532Z,100415.09
2023-04-26T08:21:29.928Z,100419.56
2023-04-26T08:23:57.327Z,100410.22
2023-04-26T08:26:24.882Z,100412.94
2023-04-26T08:28:52.305Z,100426.09
2023-04-26T08:31:20.079Z,100418.34
2023-04-26T08:33:48.786Z,100416.41
2023-04-26T08:36:16.230Z,100429.75
2023-04-26T08:38:43.710Z,100418.13
2023-04-26T08:41:14.638Z,100419.28
2023-04-26T08:43:42.250Z,100417.03
2023-04-26T08:46:16.621Z,100421.44
2023-04-26T08:48:44.230Z,100418.09
2023-04-26T08:51:16.054Z,100415.25
2023-04-26T08:53:44.167Z,100412.69
2023-04-26T08:56:13.082Z,100414.75
2023-04-26T08:58:40.571Z,100408.44
2023-04-26T09:01:10.079Z,100406.06
2023-04-26T09:03:37.554Z,100404.59
2023-04-26T09:06:08.149Z,100406.16
2023-04-26T09:08:41.300Z,100396.72
2023-04-26T09:11:08.640Z,100400.75
2023-04-26T09:13:36.315Z,100410.16
2023-04-26T09:16:05.178Z,100416.09
2023-04-26T09:18:33.875Z,100406.00
2023-04-26T09:21:07.653Z,100417.69
2023-04-26T09:23:36.644Z,100415.97
2023-04-26T09:26:16.966Z,100414.44
2023-04-26T09:28:44.447Z,100419.22
2023-04-26T09:31:12.163Z,100419.28
2023-04-26T09:33:58.738Z,100418.34
2023-04-26T09:36:26.226Z,100417.53
2023-04-26T09:38:54.943Z,100421.22
2023-04-26T09:41:22.347Z,100418.06
2023-04-26T09:43:53.397Z,100419.59
2023-04-26T09:46:23.963Z,100415.03
2023-04-26T09:49:02.929Z,100412.47
2023-04-26T09:51:30.532Z,100415.06
2023-04-26T09:53:59.248Z,100427.00
2023-04-26T09:56:26.787Z,100420.56
2023-04-26T09:58:59.099Z,100421.69
2023-04-26T10:01:30.531Z,100422.19
2023-04-26T10:04:01.811Z,100417.56
2023-04-26T10:06:29.667Z,100427.09
2023-04-26T10:08:58.828Z,100413.78
2023-04-26T10:11:27.401Z,100411.50
2023-04-26T10:13:54.770Z,100411.91
2023-04-26T10:16:22.347Z,100411.34
2023-04-26T10:18:50.945Z,100410.69
2023-04-26T10:21:23.441Z,100419.06
2023-04-26T10:23:51.488Z,100411.56
2023-04-26T10:26:53.188Z,100430.38
2023-04-26T10:29:21.492Z,100425.31
2023-04-26T10:32:09.465Z,100426.91
2023-04-26T10:34:37.940Z,100422.50
2023-04-26T10:37:10.201Z,100426.63
2023-04-26T10:39:37.842Z,100417.56
2023-04-26T10:42:27.560Z,100426.75
2023-04-26T10:44:56.462Z,100420.44
2023-04-26T10:47:27.656Z,100422.09
2023-04-26T10:50:05.557Z,100414.38
2023-04-26T10:52:34.207Z,100416.91
2023-04-26T10:55:02.568Z,100410.22
2023-04-26T10:57:50.259Z,100409.50
2023-04-26T11:00:27.926Z,100418.66
2023-04-26T11:02:59.802Z,100412.69
2023-04-26T11:05:52.024Z,100415.66
2023-04-26T11:08:20.965Z,100416.09
2023-04-26T11:10:53.960Z,100406.94
2023-04-26T11:13:22.659Z,100421.50
2023-04-26T11:15:54.046Z,100412.28
2023-04-26T11:18:22.246Z,100419.69
2023-04-26T11:20:50.130Z,100420.44
2023-04-26T11:23:19.344Z,100413.69
2023-04-26T11:25:47.006Z,100422.75
2023-04-26T11:28:14.527Z,100411.22
2023-04-26T11:30:44.702Z,100417.22
2023-04-26T11:33:18.206Z,100420.63
2023-04-26T11:35:47.547Z,100422.53
2023-04-26T11:38:15.374Z,100416.41
2023-04-26T11:40:43.037Z,100421.50
2023-04-26T11:43:11.465Z,100410.03
2023-04-26T11:45:39.540Z,100409.75
2023-04-26T11:48:11.429Z,100403.13
2023-04-26T11:50:39.961Z,100413.81
2023-04-26T11:53:09.747Z,100414.38
2023-04-26T11:55:37.399Z,100427.22
2023-04-26T11:58:16.247Z,100436.59
2023-04-26T12:01:00.318Z,100433.34
2023-04-26T12:03:33.708Z,100436.41
2023-04-26T12:06:01.363Z,100441.00
2023-04-26T12:08:29.151Z,100441.59
2023-04-26T12:11:02.109Z,100441.22
2023-04-26T12:13:30.707Z,100450.22
2023-04-26T12:15:58.352Z,100446.47
2023-04-26T12:18:33.546Z,100437.22
2023-04-26T12:21:01.991Z,100438.13
2023-04-26T12:23:39.519Z,100443.22
2023-04-26T12:26:07.618Z,100429.91
2023-04-26T12:28:35.104Z,100438.28
2023-04-26T12:31:04.278Z,100430.00
2023-04-26T12:33:33.297Z,100441.41
2023-04-26T12:36:07.409Z,100430.00
2023-04-26T12:38:34.832Z,100436.56
2023-04-26T12:41:02.251Z,100423.00
2023-04-26T12:43:29.704Z,100423.97
2023-04-26T12:45:57.327Z,100435.44
2023-04-26T12:48:24.794Z,100426.56
2023-04-26T12:50:53.612Z,100431.19
2023-04-26T12:53:21.125Z,100422.19
2023-04-26T12:55:48.514Z,100427.03
2023-04-26T12:58:16.224Z,100421.03
2023-04-26T13:00:44.774Z,100422.56
2023-04-26T13:03:14.434Z,100425.28
2023-04-26T13:05:42.421Z,100428.81
2023-04-26T13:08:11.524Z,100437.66
2023-04-26T13:10:39.134Z,100435.16
2023-04-26T13:13:07.993Z,100419.72
2023-04-26T13:15:35.494Z,100428.66
2023-04-26T13:18:02.951Z,100427.50
2023-04-26T13:20:31.041Z,100431.25
2023-04-26T13:22:58.568Z,100427.06
2023-04-26T13:25:27.734Z,100430.44
2023-04-26T13:27:55.408Z,100426.81
2023-04-26T13:30:22.956Z,100414.84
2023-04-26T13:32:50.533Z,100428.50
2023-04-26T13:35:18.036Z,100420.34
2023-04-26T13:37:45.416Z,100424.50
2023-04-26T13:40:13.731Z,100423.19
2023-04-26T13:42:42.645Z,100417.31
2023-04-26T13:45:11.117Z,100413.28
2023-04-26T13:47:38.593Z,100411.66
2023-04-26T13:50:06.614Z,100428.53
2023-04-26T13:52:34.106Z,100429.72
2023-04-26T13:55:01.636Z,100426.34
2023-04-26T13:57:29.013Z,100422.22
2023-04-26T13:59:57.782Z,100419.13
2023-04-26T14:02:25.652Z,100421.81
2023-04-26T14:04:53.501Z,100431.88
2023-04-26T14:07:21.094Z,100433.03
2023-04-26T14:09:48.520Z,100429.16
2023-04-26T14:12:16.558Z,100432.19
2023-04-26T14:14:46.230Z,100435.81
2023-04-26T14:17:15.251Z,100426.50
2023-04-26T14:19:42.796Z,100430.72
2023-04-26T14:22:12.710Z,100438.66
2023-04-26T14:24:40.403Z,100433.06
2023-04-26T14:27:07.835Z,100436.53
2023-04-26T14:29:35.230Z,100426.16
2023-04-26T14:32:03.119Z,100435.81
2023-04-26T14:34:31.923Z,100445.09
2023-04-26T14:37:01.612Z,100446.09
2023-04-26T14:39:29.160Z,100447.47
2023-04-26T14:41:56.876Z,100433.88
2023-04-26T14:44:24.488Z,100429.50
2023-04-26T14:46:52.427Z,100436.63
2023-04-26T14:49:20.001Z,100437.91
2023-04-26T14:51:49.825Z,100438.03
2023-04-26T14:54:18.709Z,100444.16
2023-04-26T14:56:46.271Z,100445.00
2023-04-26T14:59:13.695Z,100444.53
2023-04-26T15:01:41.083Z,100443.44
2023-04-26T15:04:09.171Z,100437.88
2023-04-26T15:06:37.107Z,100448.78
2023-04-26T15:09:08.587Z,100441.19
2023-04-26T15:11:36.524Z,100434.47
2023-04-26T15:14:04.326Z,100451.34
2023-04-26T15:16:31.857Z,100439.66
2023-04-26T15:18:59.309Z,100432.38
2023-04-26T15:21:27.355Z,100452.91
2023-04-26T15:23:54.720Z,100441.31
2023-04-26T15:26:23.973Z,100445.41
2023-04-26T15:28:51.593Z,100433.16
2023-04-26T15:31:19.042Z,100441.41
2023-04-26T15:33:46.602Z,100438.13
2023-04-26T15:36:14.007Z,100441.63
2023-04-26T15:38:43.617Z,100445.16
2023-04-26T15:41:11.018Z,100447.75
2023-04-26T15:43:39.703Z,100448.34
2023-04-26T15:46:07.113Z,100444.13
2023-04-26T15:48:34.522Z,100454.03
2023-04-26T15:51:05.803Z,100454.84
2023-04-26T15:53:33.165Z,100445.91
2023-04-26T15:56:01.220Z,100450.94
2023-04-26T15:58:28.631Z,100453.41
2023-04-26T16:00:57.331Z,100450.19
2023-04-26T16:03:24.980Z,100451.38
2023-04-26T16:05:52.736Z,100454.31
2023-04-26T16:08:33.208Z,100449.97
2023-04-26T16:11:07.582Z,100449.16
2023-04-26T16:13:35.004Z,100447.38
2023-04-26T16:16:07.760Z,100442.91
2023-04-26T16:18:35.446Z,100446.31
2023-04-26T16:21:06.802Z,100453.88
2023-04-26T16:23:34.230Z,100446.25
2023-04-26T16:26:02.022Z,100444.13
2023-04-26T16:28:29.515Z,100442.28
2023-04-26T16:30:56.947Z,100441.66
2023-04-26T16:33:26.092Z,100445.78
2023-04-26T16:35:54.990Z,100446.97
2023-04-26T16:38:22.915Z,100447.66
2023-04-26T16:40:57.495Z,100446.19
2023-04-26T16:43:25.589Z,100454.03
2023-04-26T16:46:00.001Z,100457.28
2023-04-26T16:48:29.116Z,100449.91
2023-04-26T16:50:56.552Z,100463.78
2023-04-26T16:53:24.008Z,100455.41
2023-04-26T16:55:51.478Z,100459.47
2023-04-26T16:58:19.632Z,100464.63
2023-04-26T17:00:47.185Z,100458.13
2023-04-26T17:03:14.885Z,100463.53
2023-04-26T17:05:46.842Z,100462.00
2023-04-26T17:08:14.700Z,100463.06
2023-04-26T17:10:42.420Z,100466.47
2023-04-26T17:13:11.017Z,100466.56
2023-04-26T17:15:38.375Z,100462.13
2023-04-26T17:18:06.022Z,100467.69
2023-04-26T17:20:34.436Z,100468.00
2023-04-26T17:23:03.982Z,100474.00
2023-04-26T17:25:31.831Z,100477.69
2023-04-26T17:27:59.400Z,100482.00
2023-04-26T17:30:26.962Z,100477.47
2023-04-26T17:32:54.557Z,100481.44
2023-04-26T17:35:22.021Z,100479.22
2023-04-26T17:37:50.215Z,100483.41
2023-04-26T17:40:19.969Z,100476.69
2023-04-26T17:42:47.431Z,100485.72
2023-04-26T17:45:14.989Z,100482.44
2023-04-26T17:47:42.766Z,100492.13
2023-04-26T17:50:10.668Z,100492.63
2023-04-26T17:52:38.734Z,100494.25
2023-04-26T17:55:09.449Z,100486.88
2023-04-26T17:57:38.381Z,100487.66
2023-04-26T18:00:08.356Z,100486.09
2023-04-26T18:02:36.466Z,100488.84
2023-04-26T18:05:04.488Z,100490.81
2023-04-26T18:07:32.004Z,100498.81
2023-04-26T18:09:59.405Z,100503.59
2023-04-26T18:12:27.881Z,100505.22
2023-04-26T18:14:56.909Z,100498.50
2023-04-26T18:17:24.442Z,100506.38
2023-04-26T18:19:51.901Z,100503.41
2023-04-26T18:22:19.263Z,100503.25
2023-04-26T18:24:46.816Z,100506.19
2023-04-26T18:27:14.290Z,100504.88
2023-04-26T18:29:49.185Z,100514.91
2023-04-26T18:32:17.967Z,100516.19
2023-04-26T18:34:45.419Z,100514.06
2023-04-26T18:37:12.796Z,100511.28
2023-04-26T18:39:40.419Z,100513.75
2023-04-26T18:42:07.908Z,100515.72
2023-04-26T18:44:35.284Z,100514.88
2023-04-26T18:47:02.705Z,100526.00
2023-04-26T18:49:32.111Z,100521.75
2023-04-26T18:51:59.488Z,100525.34
2023-04-26T18:54:27.128Z,100537.81
2023-04-26T18:56:55.006Z,100531.75
2023-04-26T18:59:22.602Z,100525.19
2023-04-26T19:01:51.621Z,100519.78
2023-04-26T19:04:19.192Z,100521.13
2023-04-26T19:06:48.005Z,100535.50
2023-04-26T19:09:15.409Z,100530.13
2023-04-26T19:11:42.840Z,100535.53
2023-04-26T19:14:13.577Z,100536.69
2023-04-26T19:16:41.266Z,100542.41
2023-04-26T19:19:08.648Z,100544.50
2023-04-26T19:21:36.157Z,100543.06
2023-04-26T19:24:05.415Z,100544.53
2023-04-26T19:26:32.812Z,100539.44
2023-04-26T19:29:00.194Z,100542.41
2023-04-26T19:31:27.868Z,100545.19
2023-04-26T19:33:55.324Z,100550.91
2023-04-26T19:36:22.721Z,100557.00
2023-04-26T19:38:50.396Z,100553.38
2023-04-26T19:41:19.218Z,100551.41
2023-04-26T19:43:46.579Z,100554.66
2023-04-26T19:46:15.371Z,100551.34
2023-04-26T19:48:44.595Z,100552.00
2023-04-26T19:51:15.766Z,100559.09
2023-04-26T19:53:43.215Z,100559.56
2023-04-26T19:56:11.845Z,100561.97
2023-04-26T19:58:40.573Z,100562.66
2023-04-26T20:01:08.116Z,100565.56
2023-04-26T20:03:37.522Z,100567.84
2023-04-26T20:06:05.056Z,100564.91
2023-04-26T20:08:32.454Z,100562.22
2023-04-26T20:11:03.415Z,100563.38
2023-04-26T20:13:30.833Z,100567.78
2023-04-26T20:15:59.598Z,100565.56
2023-04-26T20:18:26.979Z,100557.00
2023-04-26T20:20:54.512Z,100560.97
2023-04-26T20:23:21.894Z,100560.81
2023-04-26T20:25:49.285Z,100564.84
2023-04-26T20:28:16.656Z,100560.91
2023-04-26T20:30:44.061Z,100554.28
2023-04-26T20:33:12.985Z,100558.75
2023-04-26T20:35:41.122Z,100551.91
2023-04-26T20:38:08.564Z,100558.81
2023-04-26T20:40:36.109Z,100556.41
2023-04-26T20:43:03.488Z,100551.56
2023-04-26T20:45:31.271Z,100559.19
2023-04-26T20:47:59.779Z,100562.84
2023-04-26T20:50:28.758Z,100560.09
2023-04-26T20:52:56.190Z,100555.75
2023-04-26T20:55:23.830Z,100558.63
2023-04-26T20:57:51.248Z,100560.38
2023-04-26T21:00:19.295Z,100557.59
2023-04-26T21:02:46.840Z,100565.41
2023-04-26T21:05:14.367Z,100562.84
2023-04-26T21:07:43.104Z,100559.44
2023-04-26T21:10:11.172Z,100552.91
2023-04-26T21:12:38.587Z,100558.03
2023-04-26T21:15:07.336Z,100558.94
2023-04-26T21:17:36.210Z,100555.94
2023-04-26T21:20:04.305Z,100557.53
2023-04-26T21:22:31.782Z,100560.59
2023-04-26T21:25:00.704Z,100561.50
2023-04-26T21:27:28.080Z,100567.59
2023-04-26T21:29:55.492Z,100574.88
2023-04-26T21:32:22.896Z,100578.16
2023-04-26T21:34:50.469Z,100576.75
2023-04-26T21:37:17.846Z,100583.47
2023-04-26T21:39:45.210Z,100584.72
2023-04-26T21:42:13.927Z,100583.56
2023-04-26T21:44:41.357Z,100581.59
2023-04-26T21:47:08.912Z,100594.09
2023-04-26T21:49:36.394Z,100586.25
2023-04-26T21:52:03.802Z,100591.78
2023-04-26T21:54:31.182Z,100599.72
2023-04-26T21:56:58.574Z,100599.25
2023-04-26T21:59:27.274Z,100595.69
2023-04-26T22:01:54.656Z,100602.31
2023-04-26T22:04:22.206Z,100597.63
2023-04-26T22:06:49.706Z,100596.50
2023-04-26T22:09:17.064Z,100608.31
2023-04-26T22:11:44.497Z,100601.75
2023-04-26T22:14:11.912Z,100612.25
2023-04-26T22:16:40.884Z,100612.25
2023-04-26T22:19:08.355Z,100609.81
2023-04-26T22:21:36.457Z,100613.84
2023-04-26T22:24:04.032Z,100614.91
2023-04-26T22:26:31.430Z,100622.63
2023-04-26T22:28:59.838Z,100629.94
2023-04-26T22:31:27.243Z,100623.13
2023-04-26T22:33:56.132Z,100631.47
2023-04-26T22:36:23.514Z,100624.06
2023-04-26T22:38:51.045Z,100631.53
2023-04-26T22:41:18.421Z,100635.59
2023-04-26T22:43:46.129Z,100629.28
2023-04-26T22:46:13.571Z,100636.47
2023-04-26T22:48:41.055Z,100636.81
2023-04-26T22:51:09.783Z,100642.44
2023-04-26T22:53:37.255Z,100634.88
2023-04-26T22:56:04.899Z,100638.56
2023-04-26T22:58:32.286Z,100633.09
2023-04-26T23:00:59.659Z,100642.56
2023-04-26T23:03:27.258Z,100646.66
2023-04-26T23:05:54.711Z,100644.63
2023-04-26T23:08:23.456Z,100644.38
2023-04-26T23:10:50.940Z,100650.00
2023-04-26T23:13:18.332Z,100643.75
2023-04-26T23:15:45.720Z,100652.13
2023-04-26T23:18:13.699Z,100644.75
2023-04-26T23:20:41.220Z,100641.78
2023-04-26T23:23:08.589Z,100642.25
2023-04-26T23:25:41.622Z,100646.16
2023-04-26T23:28:09.305Z,100653.84
2023-04-26T23:30:36.807Z,100653.69
2023-04-26T23:33:04.268Z,100656.13
2023-04-26T23:35:31.822Z,100651.03
2023-04-26T23:37:59.171Z,100651.78
2023-04-26T23:40:26.542Z,100654.47
2023-04-26T23:42:55.278Z,100658.59
2023-04-26T23:45:24.047Z,100658.13
2023-04-26T23:47:51.471Z,100649.41
2023-04-26T23:50:18.872Z,100652.97
2023-04-26T23:52:46.226Z,100650.56
2023-04-26T23:55:13.753Z,100646.94
2023-04-26T23:57:41.208Z,100648.84
